Latest Weather Observations for Gannett Cay

IDQ60801

Issued at 8:02 am EST Friday 21 June 2019 (issued every 10 minutes, with the page automatically refreshed every 10 minutes)

About weather observations | Map of weather stations | Latest weather observations for QLD | Other Formats
Station Details ID: 200831 Name: GANNET CAY Lat: -21.98 Lon: 152.47 Height: 2.3 m
Data from the previous 72 hours. | See also: Recent months for locations in Queensland
Date/Time
EST
Temp
°C
App
Temp
°C
Dew
Point
°C
Rel
Hum
%
Delta-T
°C
Wind Press
QNH
hPa
Press
MSL
hPa
Rain since
9am
mm
Dir  Spd
km/h
Gust
km/h
Spd
kts
Gust
kts
21/08:00am 21.6 - - - - - - - - - 1017.9 1017.9 -
21/07:30am 21.3 - - - - - - - - - 1017.7 1017.7 -
21/07:00am 21.5 - - - - - - - - - 1017.3 1017.3 -
21/06:30am 21.5 - - - - - - - - - 1017.1 1017.1 -
21/06:00am 21.4 - - - - - - - - - 1016.8 1016.8 -
21/05:30am 21.4 - - - - - - - - - 1016.6 1016.6 -
21/05:00am 21.7 - - - - - - - - - 1016.5 1016.5 -
21/04:30am 21.8 - - - - - - - - - 1016.4 1016.4 -
21/04:00am 21.6 - - - - - - - - - 1016.5 1016.5 -
21/03:30am 22.0 - - - - - - - - - 1016.6 1016.6 -
21/03:00am 22.0 - - - - - - - - - 1016.6 1016.6 -
21/02:30am 22.0 - - - - - - - - - 1016.6 1016.6 -
21/02:00am 22.1 - - - - - - - - - 1016.9 1016.9 -
21/01:30am 22.3 - - - - - - - - - 1017.1 1017.1 -
21/01:00am 22.2 - - - - - - - - - 1017.4 1017.4 -
21/12:30am 22.2 - - - - - - - - - 1017.6 1017.6 -
21/12:00am 22.3 - - - - - - - - - 1017.7 1017.7 -
 
Date/Time
EST
Temp
°C
App
Temp
°C
Dew
Point
°C
Rel
Hum
%
Delta-T
°C
Wind Press
QNH
hPa
Press
MSL
hPa
Rain since
9am
mm
Dir  Spd
km/h
Gust
km/h
Spd
kts
Gust
kts
20/11:30pm 22.2 - - - - - - - - - 1017.8 1017.8 -
20/11:00pm 22.2 - - - - - - - - - 1018.1 1018.1 -
20/10:30pm 22.2 - - - - - - - - - 1018.4 1018.4 -
20/10:00pm 22.3 - - - - - - - - - 1018.4 1018.4 -
20/09:30pm 22.3 - - - - - - - - - 1018.5 1018.5 -
20/09:00pm 22.3 - - - - - - - - - 1018.5 1018.5 -
20/08:30pm 22.2 - - - - - - - - - 1018.3 1018.3 -
20/08:00pm 22.2 - - - - - - - - - 1018.4 1018.4 -
20/07:30pm 22.2 - - - - - - - - - 1018.2 1018.2 -
20/07:00pm 22.1 - - - - - - - - - 1018.0 1018.0 -
20/06:30pm 22.0 - - - - - - - - - 1017.7 1017.7 -
20/06:00pm 21.9 - - - - - - - - - 1017.3 1017.3 -
20/05:30pm 21.9 - - - - - - - - - 1017.1 1017.1 -
20/05:00pm 22.0 - - - - - - - - - 1016.9 1016.9 -
20/04:30pm 22.3 - - - - - - - - - 1016.7 1016.7 -
20/04:00pm 22.6 - - - - - - - - - 1016.6 1016.6 -
20/03:30pm 22.7 - - - - - - - - - 1016.5 1016.5 -
20/03:00pm 22.8 - - - - - - - - - 1016.4 1016.4 -
20/02:30pm 22.7 - - - - - - - - - 1016.4 1016.4 -
20/02:00pm 22.8 - - - - - - - - - 1016.6 1016.6 -
20/01:30pm 22.6 - - - - - - - - - 1016.9 1016.9 -
20/01:00pm 22.4 - - - - - - - - - 1017.0 1017.0 -
20/12:30pm 22.5 - - - - - - - - - 1017.4 1017.4 -
20/12:00pm 22.5 - - - - - - - - - 1017.7 1017.7 -
20/11:30am 22.3 - - - - - - - - - 1018.0 1018.0 -
20/11:00am 22.2 - - - - - - - - - 1018.3 1018.3 -
20/10:30am 22.3 - - - - - - - - - 1018.7 1018.7 -
20/10:00am 22.2 - - - - - - - - - 1018.8 1018.8 -
20/09:30am 22.2 - - - - - - - - - 1019.0 1019.0 -
20/09:00am 22.1 - - - - - - - - - 1018.8 1018.8 -
20/08:30am 21.6 - - - - - - - - - 1018.6 1018.6 -
20/08:00am 21.7 - - - - - - - - - 1018.5 1018.5 -
20/07:30am 21.6 - - - - - - - - - 1018.1 1018.1 -
20/07:00am 21.7 - - - - - - - - - 1017.8 1017.8 -
20/06:30am 21.4 - - - - - - - - - 1017.4 1017.4 -
20/06:00am 21.4 - - - - - - - - - 1017.1 1017.1 -
20/05:30am 21.3 - - - - - - - - - 1016.7 1016.7 -
20/05:00am 21.3 - - - - - - - - - 1016.6 1016.6 -
20/04:30am 21.0 - - - - - - - - - 1016.4 1016.4 -
20/04:00am 20.8 - - - - - - - - - 1016.3 1016.3 -
20/03:30am 20.8 - - - - - - - - - 1016.4 1016.4 -
20/03:00am 20.6 - - - - - - - - - 1016.6 1016.6 -
20/02:30am 20.7 - - - - - - - - - 1016.8 1016.8 -
20/02:00am 20.6 - - - - - - - - - 1016.9 1016.9 -
20/01:30am 20.6 - - - - - - - - - 1017.1 1017.1 -
20/01:00am 20.7 - - - - - - - - - 1017.1 1017.1 -
20/12:30am 20.7 - - - - - - - - - 1017.3 1017.3 -
20/12:00am 20.8 - - - - - - - - - 1017.5 1017.5 -
 
Date/Time
EST
Temp
°C
App
Temp
°C
Dew
Point
°C
Rel
Hum
%
Delta-T
°C
Wind Press
QNH
hPa
Press
MSL
hPa
Rain since
9am
mm
Dir  Spd
km/h
Gust
km/h
Spd
kts
Gust
kts
19/11:30pm 20.5 - - - - - - - - - 1017.7 1017.7 -
19/11:00pm 20.7 - - - - - - - - - 1017.9 1017.9 -
19/10:30pm 20.6 - - - - - - - - - 1018.2 1018.2 -
19/10:00pm 20.4 - - - - - - - - - 1018.5 1018.5 -
19/09:30pm 20.5 - - - - - - - - - 1018.8 1018.8 -
19/09:00pm 20.5 - - - - - - - - - 1018.7 1018.7 -
19/08:30pm 20.4 - - - - - - - - - 1018.6 1018.6 -
19/08:00pm 20.5 - - - - - - - - - 1018.6 1018.6 -
19/07:30pm 20.7 - - - - - - - - - 1018.6 1018.6 -
19/07:00pm 20.6 - - - - - - - - - 1018.3 1018.3 -
19/06:30pm 20.6 - - - - - - - - - 1018.0 1018.0 -
19/06:00pm 20.6 - - - - - - - - - 1017.7 1017.7 -
19/05:30pm 20.7 - - - - - - - - - 1017.4 1017.4 -
19/05:00pm 20.9 - - - - - - - - - 1017.1 1017.1 -
19/04:30pm 21.0 - - - - - - - - - 1016.8 1016.8 -
19/04:00pm 21.2 - - - - - - - - - 1016.4 1016.4 -
19/03:30pm 21.1 - - - - - - - - - 1016.2 1016.2 -
19/03:00pm 21.4 - - - - - - - - - 1016.1 1016.1 -
19/02:30pm 21.4 - - - - - - - - - 1016.0 1016.0 -
19/02:00pm 21.4 - - - - - - - - - 1016.0 1016.0 -
19/01:30pm 21.3 - - - - - - - - - 1016.1 1016.1 -
19/01:00pm 21.2 - - - - - - - - - 1016.3 1016.3 -
19/12:30pm 21.5 - - - - - - - - - 1016.8 1016.8 -
19/12:00pm 21.2 - - - - - - - - - 1017.4 1017.4 -
19/11:30am 21.3 - - - - - - - - - 1017.9 1017.9 -
19/11:00am 21.1 - - - - - - - - - 1018.3 1018.3 -
19/10:30am 21.3 - - - - - - - - - 1018.6 1018.6 -
19/10:00am 21.3 - - - - - - - - - 1018.7 1018.7 -
19/09:30am 21.3 - - - - - - - - - 1018.6 1018.6 -
19/09:00am 21.5 - - - - - - - - - 1018.5 1018.5 -
19/08:30am 21.4 - - - - - - - - - 1018.2 1018.2 -
19/08:00am 21.5 - - - - - - - - - 1017.8 1017.8 -
19/07:30am 21.1 - - - - - - - - - 1017.5 1017.5 -
19/07:00am 20.8 - - - - - - - - - 1017.2 1017.2 -
19/06:30am 20.3 - - - - - - - - - 1016.9 1016.9 -
19/06:00am 20.1 - - - - - - - - - 1016.7 1016.7 -
19/05:30am 20.0 - - - - - - - - - 1016.4 1016.4 -
19/05:00am 20.4 - - - - - - - - - 1016.2 1016.2 -
19/04:30am 20.3 - - - - - - - - - 1016.2 1016.2 -
19/04:00am 20.2 - - - - - - - - - 1016.2 1016.2 -
19/03:30am 20.4 - - - - - - - - - 1016.3 1016.3 -
19/03:00am 20.3 - - - - - - - - - 1016.4 1016.4 -
19/02:30am 20.3 - - - - - - - - - 1016.7 1016.7 -
19/02:00am 20.3 - - - - - - - - - 1016.8 1016.8 -
19/01:30am 20.5 - - - - - - - - - 1016.9 1016.9 -
19/01:00am 20.5 - - - - - - - - - 1017.3 1017.3 -
19/12:30am 20.6 - - - - - - - - - 1017.5 1017.5 -
19/12:00am 20.6 - - - - - - - - - 1017.5 1017.5 -
 
Date/Time
EST
Temp
°C
App
Temp
°C
Dew
Point
°C
Rel
Hum
%
Delta-T
°C
Wind Press
QNH
hPa
Press
MSL
hPa
Rain since
9am
mm
Dir  Spd
km/h
Gust
km/h
Spd
kts
Gust
kts
18/11:30pm 20.7 - - - - - - - - - 1017.7 1017.7 -
18/11:00pm 20.9 - - - - - - - - - 1017.8 1017.8 -
18/10:30pm 20.8 - - - - - - - - - 1017.8 1017.8 -
18/10:00pm 20.8 - - - - - - - - - 1017.9 1017.9 -
18/09:30pm 20.9 - - - - - - - - - 1017.8 1017.8 -
18/09:00pm 21.0 - - - - - - - - - 1017.7 1017.7 -
18/08:30pm 21.1 - - - - - - - - - 1017.6 1017.6 -
18/08:00pm 21.1 - - - - - - - - - 1017.6 1017.6 -
18/07:30pm 21.0 - - - - - - - - - 1017.3 1017.3 -
18/07:00pm 21.0 - - - - - - - - - 1017.1 1017.1 -
18/06:30pm 21.0 - - - - - - - - - 1016.8 1016.8 -
18/06:00pm 21.0 - - - - - - - - - 1016.4 1016.4 -
18/05:30pm 21.1 - - - - - - - - - 1016.2 1016.2 -
18/05:00pm 21.0 - - - - - - - - - 1015.9 1015.9 -
18/04:30pm 21.4 - - - - - - - - - 1015.5 1015.5 -
18/04:00pm 21.5 - - - - - - - - - 1015.2 1015.2 -
18/03:30pm 21.5 - - - - - - - - - 1015.2 1015.2 -
18/03:00pm 21.6 - - - - - - - - - 1015.1 1015.1 -
18/02:30pm 22.0 - - - - - - - - - 1015.3 1015.3 -
18/02:00pm 21.6 - - - - - - - - - 1015.4 1015.4 -
18/01:30pm 21.8 - - - - - - - - - 1015.6 1015.6 -
18/01:00pm 21.8 - - - - - - - - - 1016.0 1016.0 -
18/12:30pm 22.1 - - - - - - - - - 1016.2 1016.2 -
18/12:00pm 22.2 - - - - - - - - - 1016.6 1016.6 -
18/11:30am 22.0 - - - - - - - - - 1016.9 1016.9 -
18/11:00am 22.3 - - - - - - - - - 1017.2 1017.2 -
18/10:30am 22.2 - - - - - - - - - 1017.3 1017.3 -
18/10:00am 22.3 - - - - - - - - - 1017.6 1017.6 -
18/09:30am 22.3 - - - - - - - - - 1017.7 1017.7 -
18/09:00am 22.1 - - - - - - - - - 1017.7 1017.7 -
18/08:30am 22.2 - - - - - - - - - 1017.5 1017.5 -

Other formats

Comma delimited format used in spreadsheet applications
http://www.bom.gov.au/fwo/IDQ60801/IDQ60801.94379.axf

JavaScript Object Notation format (JSON) in row-major order
http://www.bom.gov.au/fwo/IDQ60801/IDQ60801.94379.json

Data quality

Most of these data are generated automatically and are frequently updated. Quality checks on data are not normally performed. It is possible for incorrect values to appear. Refer to information at About Latest Weather Observations and please check the disclaimer before using these data.